Time;durP1;ratioP1;P1;durP2;ratioP2;P2;SDS_P1;SDS_P2;PMS_P1;PMS_P2;Temp;Humidity;BMP_temperature;BMP_pressure;BME280_temperature;BME280_humidity;BME280_pressure;Samples;Min_cycle;Max_cycle;Signal;HPM_P1;HPM_P2
2021/09/29 00:00:39;;;;;;;22.07;8.97;;;;;;;-145.18;0.00;102943.50;5020054;28;20553;-70
2021/09/29 00:03:05;;;;;;;21.73;9.40;;;;;;;-145.18;0.00;102943.50;5018657;28;20044;-70
2021/09/29 00:05:30;;;;;;;22.07;9.50;;;;;;;-145.18;0.00;102943.50;5017652;28;20587;-70
2021/09/29 00:07:56;;;;;;;22.30;9.90;;;;;;;-145.18;0.00;102943.50;5020553;28;20037;-70
2021/09/29 00:10:21;;;;;;;26.47;10.27;;;;;;;-145.18;0.00;102943.50;5020220;28;20046;-70
2021/09/29 00:12:47;;;;;;;23.93;9.53;;;;;;;-145.18;0.00;102943.50;5020634;28;20288;-70
2021/09/29 00:15:14;;;;;;;18.60;8.83;;;;;;;-145.18;0.00;102943.50;5020704;28;20086;-68
2021/09/29 00:17:41;;;;;;;19.87;9.13;;;;;;;-145.18;0.00;102943.50;5019833;28;20104;-70
2021/09/29 00:20:08;;;;;;;23.47;8.93;;;;;;;-145.18;0.00;102943.50;5019875;28;20030;-70
2021/09/29 00:22:33;;;;;;;24.90;9.23;;;;;;;-145.18;0.00;102943.50;5019719;28;20120;-68
2021/09/29 00:24:59;;;;;;;23.87;10.90;;;;;;;-145.18;0.00;102943.50;5020345;28;20109;-68
2021/09/29 00:27:24;;;;;;;21.97;9.13;;;;;;;-145.18;0.00;102943.50;5020024;28;20444;-68
2021/09/29 00:29:51;;;;;;;21.73;9.40;;;;;;;-145.18;0.00;102943.50;5019680;28;20399;-68
2021/09/29 00:32:18;;;;;;;20.00;8.23;;;;;;;-145.18;0.00;102943.50;5020098;28;20029;-68
2021/09/29 00:34:45;;;;;;;19.23;8.47;;;;;;;-145.18;0.00;102943.50;5019484;28;20102;-68
2021/09/29 00:37:10;;;;;;;20.57;9.00;;;;;;;-145.18;0.00;102943.50;5020148;28;20083;-68
2021/09/29 00:39:36;;;;;;;19.60;8.53;;;;;;;-145.18;0.00;102943.50;5020308;28;20029;-68
2021/09/29 00:42:02;;;;;;;18.33;8.50;;;;;;;-145.18;0.00;102943.50;5020705;28;20357;-68
2021/09/29 00:44:28;;;;;;;20.20;8.13;;;;;;;-145.18;0.00;102943.50;5019872;28;20025;-70
2021/09/29 00:46:54;;;;;;;14.53;7.43;;;;;;;-145.18;0.00;102943.50;5019856;28;20289;-70
2021/09/29 00:49:20;;;;;;;17.17;8.50;;;;;;;-145.18;0.00;102943.50;5020302;28;20032;-68
2021/09/29 00:51:45;;;;;;;15.87;7.63;;;;;;;-145.18;0.00;102943.50;5019605;28;20105;-68
2021/09/29 00:54:11;;;;;;;20.87;9.13;;;;;;;-145.18;0.00;102943.50;5019635;28;20507;-68
2021/09/29 00:56:37;;;;;;;15.87;8.60;;;;;;;-145.18;0.00;102943.50;5020263;28;20562;-70
2021/09/29 00:59:04;;;;;;;16.27;7.70;;;;;;;-145.18;0.00;102943.50;5019272;28;20025;-70
2021/09/29 01:01:30;;;;;;;14.47;7.10;;;;;;;-145.18;0.00;102943.50;5014555;28;20140;-70
2021/09/29 01:03:57;;;;;;;14.43;7.87;;;;;;;-145.18;0.00;102943.50;5080184;22;20657;-73
2021/09/29 01:06:45;;;;;;;19.80;8.53;;;;;;;-145.18;0.00;102943.50;5079518;28;20425;-73
2021/09/29 01:09:23;;;;;;;16.40;8.20;;;;;;;-145.18;0.00;102943.50;5072548;28;20027;-71
2021/09/29 01:12:00;;;;;;;14.53;7.23;;;;;;;-145.18;0.00;102943.50;5075294;28;20028;-71
2021/09/29 01:14:55;;;;;;;18.50;8.07;;;;;;;-145.18;0.00;102943.50;5070379;28;20040;-71
2021/09/29 01:17:21;;;;;;;16.23;7.13;;;;;;;-145.18;0.00;102943.50;5073863;28;20427;-71
2021/09/29 01:20:12;;;;;;;13.50;8.23;;;;;;;-145.18;0.00;102943.50;5073337;28;20516;-70
2021/09/29 01:23:29;;;;;;;18.07;7.47;;;;;;;-145.18;0.00;102943.50;5077874;28;20387;-70
2021/09/29 01:26:14;;;;;;;18.63;7.87;;;;;;;-145.18;0.00;102943.50;5009986;28;20135;-70
2021/09/29 01:28:45;;;;;;;15.13;7.63;;;;;;;-145.18;0.00;102943.50;5069102;28;20101;-70
2021/09/29 01:31:12;;;;;;;19.57;7.00;;;;;;;-145.18;0.00;102943.50;5078542;28;20755;-70
2021/09/29 01:33:39;;;;;;;17.03;7.50;;;;;;;-145.18;0.00;102943.50;5078621;28;20406;-71
2021/09/29 01:36:05;;;;;;;16.40;8.03;;;;;;;-145.18;0.00;102943.50;5078942;28;20036;-70
2021/09/29 01:38:32;;;;;;;17.63;8.20;;;;;;;-145.18;0.00;102943.50;5070443;28;20123;-70
2021/09/29 01:40:58;;;;;;;17.90;7.93;;;;;;;-145.18;0.00;102943.50;5077672;28;20028;-71
2021/09/29 01:43:23;;;;;;;18.37;8.50;;;;;;;-145.18;0.00;102943.50;5070898;28;20056;-70
2021/09/29 01:45:49;;;;;;;16.37;7.97;;;;;;;-145.18;0.00;102943.50;5077430;28;20066;-70
2021/09/29 01:48:16;;;;;;;15.77;7.83;;;;;;;-145.18;0.00;102943.50;5072097;28;20500;-71
2021/09/29 01:50:45;;;;;;;16.53;7.77;;;;;;;-145.18;0.00;102943.50;5077229;28;20024;-70
2021/09/29 01:53:11;;;;;;;20.40;8.63;;;;;;;-145.18;0.00;102943.50;5072487;28;20086;-70
2021/09/29 01:55:38;;;;;;;22.97;7.53;;;;;;;-145.18;0.00;102943.50;5077568;28;20032;-71
2021/09/29 01:58:04;;;;;;;18.77;7.90;;;;;;;-145.18;0.00;102943.50;5078113;28;20432;-70
2021/09/29 02:00:30;;;;;;;18.97;8.37;;;;;;;-145.18;0.00;102943.50;5078069;28;20034;-71
2021/09/29 02:02:56;;;;;;;15.87;7.77;;;;;;;-145.18;0.00;102943.50;5074675;28;20482;-70
2021/09/29 02:05:32;;;;;;;22.93;8.70;;;;;;;-145.18;0.00;102943.50;5078644;28;20616;-70
2021/09/29 02:08:02;;;;;;;18.77;8.60;;;;;;;-145.18;0.00;102943.50;5071398;28;20066;-70
2021/09/29 02:10:28;;;;;;;21.40;8.17;;;;;;;-145.18;0.00;102943.50;5074789;28;20055;-70
2021/09/29 02:12:53;;;;;;;15.17;8.00;;;;;;;-145.18;0.00;102943.50;5074806;28;20032;-70
2021/09/29 02:15:21;;;;;;;14.67;7.37;;;;;;;-145.18;0.00;102943.50;5074784;28;20119;-70
2021/09/29 02:17:47;;;;;;;17.60;8.43;;;;;;;-145.18;0.00;102943.50;5075604;28;20521;-69
2021/09/29 02:20:13;;;;;;;15.37;7.70;;;;;;;-145.18;0.00;102943.50;5075300;28;20044;-69
2021/09/29 02:22:39;;;;;;;19.77;7.70;;;;;;;-145.18;0.00;102943.50;5074224;28;20026;-70
2021/09/29 02:25:06;;;;;;;22.60;8.30;;;;;;;-145.18;0.00;102943.50;5074412;28;20077;-69
2021/09/29 02:27:32;;;;;;;16.43;7.87;;;;;;;-145.18;0.00;102943.50;5077682;28;20472;-70
2021/09/29 02:29:57;;;;;;;15.60;7.70;;;;;;;-145.18;0.00;102943.50;5075063;28;20035;-70
2021/09/29 02:32:23;;;;;;;14.60;6.93;;;;;;;-145.18;0.00;102943.50;5075277;28;20067;-70
2021/09/29 02:34:48;;;;;;;16.30;7.43;;;;;;;-145.18;0.00;102943.50;5075518;28;20140;-70
2021/09/29 02:37:15;;;;;;;17.17;8.23;;;;;;;-145.18;0.00;102943.50;5078030;28;20119;-70
2021/09/29 02:39:40;;;;;;;23.53;8.57;;;;;;;-145.18;0.00;102943.50;5077493;28;20100;-70
2021/09/29 02:42:06;;;;;;;18.53;8.03;;;;;;;-145.18;0.00;102943.50;5075687;28;20446;-69
2021/09/29 02:44:33;;;;;;;18.20;7.63;;;;;;;-145.18;0.00;102943.50;5070124;28;20067;-70
2021/09/29 02:46:58;;;;;;;15.77;7.40;;;;;;;-145.18;0.00;102943.50;5072517;28;20042;-70
2021/09/29 02:49:24;;;;;;;13.67;7.23;;;;;;;-145.18;0.00;102943.50;5071409;28;20028;-70
2021/09/29 02:51:49;;;;;;;14.33;7.83;;;;;;;-145.18;0.00;102943.50;5073457;28;20032;-70
2021/09/29 02:54:15;;;;;;;17.60;7.80;;;;;;;-145.18;0.00;102943.50;5069407;28;20036;-70
2021/09/29 02:56:41;;;;;;;19.47;7.87;;;;;;;-145.18;0.00;102943.50;5074161;28;20395;-70
2021/09/29 02:59:09;;;;;;;14.67;7.87;;;;;;;-145.18;0.00;102943.50;5074235;28;20032;-72
2021/09/29 03:01:40;;;;;;;15.70;7.87;;;;;;;-145.18;0.00;102943.50;5075516;28;20031;-72
2021/09/29 03:04:05;;;;;;;13.27;7.33;;;;;;;-145.18;0.00;102943.50;5074432;28;20570;-72
2021/09/29 03:06:31;;;;;;;15.33;6.53;;;;;;;-145.18;0.00;102943.50;5077579;28;20089;-70
2021/09/29 03:08:56;;;;;;;14.57;7.07;;;;;;;-145.18;0.00;102943.50;5072766;28;20123;-70
2021/09/29 03:11:22;;;;;;;15.00;7.47;;;;;;;-145.18;0.00;102943.50;5072198;28;20168;-70
2021/09/29 03:13:48;;;;;;;12.03;6.70;;;;;;;-145.18;0.00;102943.50;5077877;28;20294;-70
2021/09/29 03:16:14;;;;;;;12.67;7.00;;;;;;;-145.18;0.00;102943.50;5077238;28;20032;-70
2021/09/29 03:18:40;;;;;;;17.03;7.00;;;;;;;-145.18;0.00;102943.50;5077801;28;20200;-70
2021/09/29 03:21:06;;;;;;;13.63;7.10;;;;;;;-145.18;0.00;102943.50;5078312;28;20321;-70
2021/09/29 03:23:31;;;;;;;15.30;7.40;;;;;;;-145.18;0.00;102943.50;5079435;28;20036;-70
2021/09/29 03:25:57;;;;;;;17.27;7.23;;;;;;;-145.18;0.00;102943.50;5079593;28;20096;-70
2021/09/29 03:28:23;;;;;;;13.17;7.07;;;;;;;-145.18;0.00;102943.50;5080970;28;20032;-70
2021/09/29 03:30:48;;;;;;;14.27;6.43;;;;;;;-145.18;0.00;102943.50;5081529;28;20276;-70
2021/09/29 03:33:14;;;;;;;18.13;7.60;;;;;;;-145.18;0.00;102943.50;5080964;28;20093;-70
2021/09/29 03:35:39;;;;;;;18.17;7.30;;;;;;;-145.18;0.00;102943.50;5080792;28;20032;-70
2021/09/29 03:38:05;;;;;;;15.57;6.97;;;;;;;-145.18;0.00;102943.50;5075999;28;20475;-70
2021/09/29 03:40:30;;;;;;;18.13;7.23;;;;;;;-145.18;0.00;102943.50;5073462;28;20487;-70
2021/09/29 03:42:56;;;;;;;16.17;7.10;;;;;;;-145.18;0.00;102943.50;5077351;28;20032;-70
2021/09/29 03:45:21;;;;;;;16.27;7.23;;;;;;;-145.18;0.00;102943.50;5073318;28;20054;-70
2021/09/29 03:47:47;;;;;;;15.67;7.17;;;;;;;-145.18;0.00;102943.50;5077862;28;20067;-70
2021/09/29 03:50:12;;;;;;;13.77;6.73;;;;;;;-145.18;0.00;102943.50;5072849;28;20120;-70
2021/09/29 03:52:39;;;;;;;14.53;7.00;;;;;;;-145.18;0.00;102943.50;5079681;28;20403;-70
2021/09/29 03:55:06;;;;;;;12.27;6.67;;;;;;;-145.18;0.00;102943.50;5073290;28;20275;-70
2021/09/29 03:57:34;;;;;;;14.03;6.70;;;;;;;-145.18;0.00;102943.50;5076734;28;20036;-70
2021/09/29 03:59:59;;;;;;;13.87;6.53;;;;;;;-145.18;0.00;102943.50;5080780;28;20234;-70
2021/09/29 04:02:25;;;;;;;14.17;6.03;;;;;;;-145.18;0.00;102943.50;5080805;28;20059;-70
2021/09/29 04:04:50;;;;;;;20.93;7.30;;;;;;;-145.18;0.00;102943.50;5077873;28;20279;-70
2021/09/29 04:07:16;;;;;;;13.87;6.30;;;;;;;-145.18;0.00;102943.50;5079375;28;20047;-70
2021/09/29 04:09:41;;;;;;;15.27;7.10;;;;;;;-145.18;0.00;102943.50;5065686;28;20052;-70
2021/09/29 04:12:07;;;;;;;16.30;7.67;;;;;;;-145.18;0.00;102943.50;5079397;28;20032;-70
2021/09/29 04:14:33;;;;;;;16.37;7.20;;;;;;;-145.18;0.00;102943.50;5079997;28;20499;-70
2021/09/29 04:16:59;;;;;;;12.60;6.73;;;;;;;-145.18;0.00;102943.50;5080284;28;20377;-70
2021/09/29 04:19:24;;;;;;;14.57;6.57;;;;;;;-145.18;0.00;102943.50;5079899;28;20058;-70
2021/09/29 04:21:50;;;;;;;15.03;6.90;;;;;;;-145.18;0.00;102943.50;5080400;28;20016;-70
2021/09/29 04:24:15;;;;;;;15.90;6.93;;;;;;;-145.18;0.00;102943.50;5077229;28;20403;-70
2021/09/29 04:26:41;;;;;;;15.33;6.93;;;;;;;-145.18;0.00;102943.50;5078031;28;20392;-70
2021/09/29 04:29:07;;;;;;;13.17;7.37;;;;;;;-145.18;0.00;102943.50;5079639;28;20035;-70
2021/09/29 04:31:34;;;;;;;14.97;6.93;;;;;;;-145.18;0.00;102943.50;5079739;28;20028;-71
2021/09/29 04:33:59;;;;;;;12.90;6.40;;;;;;;-145.18;0.00;102943.50;5072326;28;20097;-70
2021/09/29 04:36:25;;;;;;;15.07;7.80;;;;;;;-145.18;0.00;102943.50;5080345;28;20503;-70
2021/09/29 04:38:50;;;;;;;13.10;6.63;;;;;;;-145.18;0.00;102943.50;5079289;28;20036;-70
2021/09/29 04:41:16;;;;;;;12.83;6.40;;;;;;;-145.18;0.00;102943.50;5079638;28;20111;-70
2021/09/29 04:43:41;;;;;;;13.57;6.13;;;;;;;-145.18;0.00;102943.50;5078768;28;20028;-70
2021/09/29 04:46:07;;;;;;;12.93;6.77;;;;;;;-145.18;0.00;102943.50;5080047;28;20032;-70
2021/09/29 04:48:32;;;;;;;13.93;6.17;;;;;;;-145.18;0.00;102943.50;5070320;28;20187;-71
2021/09/29 04:50:58;;;;;;;14.17;6.70;;;;;;;-145.18;0.00;102943.50;5078932;28;20503;-71
2021/09/29 04:53:23;;;;;;;13.17;6.30;;;;;;;-145.18;0.00;102943.50;5072098;28;20029;-71
2021/09/29 04:55:49;;;;;;;12.70;6.07;;;;;;;-145.18;0.00;102943.50;5077560;28;20036;-70
2021/09/29 04:58:14;;;;;;;13.67;6.43;;;;;;;-145.18;0.00;102943.50;5073318;28;20028;-70
2021/09/29 05:00:40;;;;;;;16.17;6.70;;;;;;;-145.18;0.00;102943.50;5077948;28;20574;-70
2021/09/29 05:03:07;;;;;;;13.13;6.43;;;;;;;-145.18;0.00;102943.50;5076303;28;20125;-70
2021/09/29 05:05:35;;;;;;;12.47;6.10;;;;;;;-145.18;0.00;102943.50;5077890;28;20123;-70
2021/09/29 05:08:03;;;;;;;11.70;6.50;;;;;;;-145.18;0.00;102943.50;5077715;28;20035;-71
2021/09/29 05:10:50;;;;;;;10.67;5.90;;;;;;;-145.18;0.00;102943.50;5077571;28;20054;-71
2021/09/29 05:13:29;;;;;;;14.73;6.10;;;;;;;-145.18;0.00;102943.50;5073437;28;20032;-70
2021/09/29 05:15:55;;;;;;;13.60;6.33;;;;;;;-145.18;0.00;102943.50;5068590;28;20024;-71
2021/09/29 05:18:20;;;;;;;12.53;5.43;;;;;;;-145.18;0.00;102943.50;5073039;28;20508;-71
2021/09/29 05:20:46;;;;;;;15.60;6.90;;;;;;;-145.18;0.00;102943.50;5067227;28;20027;-71
2021/09/29 05:23:12;;;;;;;12.70;6.13;;;;;;;-145.18;0.00;102943.50;5078404;28;20016;-71
2021/09/29 05:25:38;;;;;;;13.73;5.90;;;;;;;-145.18;0.00;102943.50;5078720;28;20020;-70
2021/09/29 05:28:07;;;;;;;13.03;6.53;;;;;;;-145.18;0.00;102943.50;5077568;28;20024;-71
2021/09/29 05:30:32;;;;;;;10.47;6.00;;;;;;;-145.18;0.00;102943.50;5078364;28;20061;-71
2021/09/29 05:32:58;;;;;;;11.93;5.80;;;;;;;-145.18;0.00;102943.50;5077677;28;20027;-70
2021/09/29 05:35:23;;;;;;;11.93;5.63;;;;;;;-145.18;0.00;102943.50;5078216;28;20028;-71
2021/09/29 05:37:49;;;;;;;11.37;6.87;;;;;;;-145.18;0.00;102943.50;5077737;28;20360;-71
2021/09/29 05:40:14;;;;;;;14.30;5.93;;;;;;;-145.18;0.00;102943.50;5078060;28;20521;-71
2021/09/29 05:42:40;;;;;;;13.63;6.33;;;;;;;-145.18;0.00;102943.50;5075778;28;20357;-71
2021/09/29 05:45:06;;;;;;;13.33;6.23;;;;;;;-145.18;0.00;102943.50;5076866;28;20122;-71
2021/09/29 05:47:32;;;;;;;20.80;5.47;;;;;;;-145.18;0.00;102943.50;5077284;28;20499;-71
2021/09/29 05:49:57;;;;;;;16.37;6.57;;;;;;;-145.18;0.00;102943.50;5077353;28;20088;-71
2021/09/29 05:52:23;;;;;;;18.77;6.40;;;;;;;-145.18;0.00;102943.50;5078931;28;20052;-71
2021/09/29 05:54:48;;;;;;;13.37;5.97;;;;;;;-145.18;0.00;102943.50;5075539;28;20028;-71
2021/09/29 05:57:15;;;;;;;11.03;5.47;;;;;;;-145.18;0.00;102943.50;5079310;28;20031;-71
2021/09/29 05:59:41;;;;;;;14.30;6.00;;;;;;;-145.18;0.00;102943.50;5075966;28;20047;-72
2021/09/29 06:02:06;;;;;;;14.60;6.37;;;;;;;-145.18;0.00;102943.50;5078756;28;20047;-72
2021/09/29 06:04:32;;;;;;;17.63;6.30;;;;;;;-145.18;0.00;102943.50;5076546;28;20110;-72
2021/09/29 06:07:00;;;;;;;11.10;6.20;;;;;;;-145.18;0.00;102943.50;5078645;28;20509;-73
2021/09/29 06:09:29;;;;;;;13.97;5.67;;;;;;;-145.18;0.00;102943.50;5072612;28;20219;-73
2021/09/29 06:11:55;;;;;;;10.83;5.33;;;;;;;-145.18;0.00;102943.50;5077044;28;20123;-73
2021/09/29 06:14:20;;;;;;;13.03;5.80;;;;;;;-145.18;0.00;102943.50;5078019;28;20107;-73
2021/09/29 06:16:47;;;;;;;13.37;5.53;;;;;;;-145.18;0.00;102943.50;5078717;28;20031;-73
2021/09/29 06:19:16;;;;;;;11.00;5.40;;;;;;;-145.18;0.00;102943.50;5078188;28;20581;-73
2021/09/29 06:21:42;;;;;;;11.50;5.70;;;;;;;-145.18;0.00;102943.50;5077951;28;20039;-73
2021/09/29 06:24:08;;;;;;;17.07;5.50;;;;;;;-145.18;0.00;102943.50;5078657;28;20259;-73
2021/09/29 06:26:33;;;;;;;15.47;6.07;;;;;;;-145.18;0.00;102943.50;5071166;28;20647;-72
2021/09/29 06:28:59;;;;;;;9.80;5.67;;;;;;;-145.18;0.00;102943.50;5076954;28;20024;-72
2021/09/29 06:31:28;;;;;;;16.77;6.33;;;;;;;-145.18;0.00;102943.50;5077866;28;20630;-73
2021/09/29 06:33:53;;;;;;;11.83;5.83;;;;;;;-145.18;0.00;102943.50;5077290;28;20028;-73
2021/09/29 06:36:19;;;;;;;14.43;6.03;;;;;;;-145.18;0.00;102943.50;5076968;28;20487;-73
2021/09/29 06:38:44;;;;;;;13.50;5.30;;;;;;;-145.18;0.00;102943.50;5077923;28;20618;-73
2021/09/29 06:41:10;;;;;;;10.90;5.40;;;;;;;-145.18;0.00;102943.50;5077972;28;20192;-73
2021/09/29 06:43:35;;;;;;;10.60;4.93;;;;;;;-145.18;0.00;102943.50;5076991;28;20569;-73
2021/09/29 06:46:01;;;;;;;10.77;5.60;;;;;;;-145.18;0.00;102943.50;5078168;28;20206;-73
2021/09/29 06:48:27;;;;;;;8.63;4.47;;;;;;;-145.18;0.00;102943.50;5077759;28;20111;-72
2021/09/29 06:50:52;;;;;;;10.53;5.33;;;;;;;-145.18;0.00;102943.50;5077619;28;20054;-72
2021/09/29 06:53:20;;;;;;;9.50;5.00;;;;;;;-145.18;0.00;102943.50;5077668;28;20515;-72
2021/09/29 06:55:48;;;;;;;12.67;5.43;;;;;;;-145.18;0.00;102943.50;5082368;28;20028;-73
2021/09/29 06:58:13;;;;;;;10.43;4.80;;;;;;;-145.18;0.00;102943.50;5081360;28;20088;-72
2021/09/29 07:00:39;;;;;;;8.57;4.73;;;;;;;-145.18;0.00;102943.50;5081740;28;20024;-72
2021/09/29 07:03:04;;;;;;;9.23;4.93;;;;;;;-145.18;0.00;102943.50;5078208;28;20415;-72
2021/09/29 07:05:30;;;;;;;9.63;4.73;;;;;;;-145.18;0.00;102943.50;5082212;28;20027;-72
2021/09/29 07:07:56;;;;;;;9.47;5.03;;;;;;;-145.18;0.00;102943.50;5078700;28;20036;-72
2021/09/29 07:10:23;;;;;;;9.70;4.77;;;;;;;-145.18;0.00;102943.50;5074057;28;20024;-72
2021/09/29 07:12:57;;;;;;;15.50;5.80;;;;;;;-145.18;0.00;102943.50;5077426;28;20149;-73
2021/09/29 07:15:24;;;;;;;10.37;4.77;;;;;;;-145.18;0.00;102943.50;5081726;28;20016;-72
2021/09/29 07:17:55;;;;;;;9.97;4.93;;;;;;;-145.18;0.00;102943.50;5078136;28;20529;-72
2021/09/29 07:20:20;;;;;;;12.83;4.67;;;;;;;-145.18;0.00;102943.50;5080311;28;20302;-71
2021/09/29 07:22:46;;;;;;;9.50;4.60;;;;;;;-145.18;0.00;102943.50;5080164;28;20071;-72
2021/09/29 07:25:12;;;;;;;9.37;4.60;;;;;;;-145.18;0.00;102943.50;5080393;28;20094;-72
2021/09/29 07:27:37;;;;;;;10.60;4.40;;;;;;;-145.18;0.00;102943.50;5080210;28;20027;-72
2021/09/29 07:30:03;;;;;;;7.63;4.50;;;;;;;-145.18;0.00;102943.50;5076117;28;20399;-72
2021/09/29 07:32:29;;;;;;;8.47;4.47;;;;;;;-145.18;0.00;102943.50;5080945;28;20028;-72
2021/09/29 07:34:54;;;;;;;11.23;4.30;;;;;;;-145.18;0.00;102943.50;5068859;28;20273;-72
2021/09/29 07:37:20;;;;;;;8.77;4.70;;;;;;;-145.18;0.00;102943.50;5080820;28;20107;-71
2021/09/29 07:39:46;;;;;;;9.63;4.73;;;;;;;-145.18;0.00;102943.50;5070786;28;20278;-72
2021/09/29 07:42:13;;;;;;;8.53;4.47;;;;;;;-145.18;0.00;102943.50;5081085;28;20043;-72
2021/09/29 07:44:38;;;;;;;8.37;4.53;;;;;;;-145.18;0.00;102943.50;5072268;28;20035;-72
2021/09/29 07:47:04;;;;;;;9.43;4.50;;;;;;;-145.18;0.00;102943.50;5083032;28;20675;-71
2021/09/29 07:49:29;;;;;;;11.47;4.57;;;;;;;-145.18;0.00;102943.50;5070397;28;20036;-72
2021/09/29 07:51:57;;;;;;;7.73;3.80;;;;;;;-145.18;0.00;102943.50;5080778;28;20394;-71
2021/09/29 07:54:25;;;;;;;7.83;4.00;;;;;;;-145.18;0.00;102943.50;5079517;28;20080;-71
2021/09/29 07:56:51;;;;;;;8.30;4.30;;;;;;;-145.18;0.00;102943.50;5080622;28;20024;-71
2021/09/29 07:59:17;;;;;;;9.63;4.10;;;;;;;-145.18;0.00;102943.50;5072369;28;20028;-71
2021/09/29 08:01:42;;;;;;;8.97;3.60;;;;;;;-145.18;0.00;102943.50;5080322;28;20032;-71
2021/09/29 08:04:08;;;;;;;7.63;3.73;;;;;;;-145.18;0.00;102943.50;5078271;28;20028;-71
2021/09/29 08:06:34;;;;;;;7.57;3.80;;;;;;;-145.18;0.00;102943.50;5078604;28;20058;-71
2021/09/29 08:09:00;;;;;;;8.60;3.73;;;;;;;-145.18;0.00;102943.50;5079707;28;20157;-71
2021/09/29 08:11:26;;;;;;;7.20;3.93;;;;;;;-145.18;0.00;102943.50;5080191;28;20034;-71
2021/09/29 08:13:52;;;;;;;7.77;3.53;;;;;;;-145.18;0.00;102943.50;5079712;28;20024;-71
2021/09/29 08:16:17;;;;;;;7.30;3.33;;;;;;;-145.18;0.00;102943.50;5079622;28;20032;-71
2021/09/29 08:18:43;;;;;;;7.13;3.20;;;;;;;-145.18;0.00;102943.50;5079935;28;20407;-72
2021/09/29 08:21:14;;;;;;;8.57;3.37;;;;;;;-145.18;0.00;102943.50;5080331;28;20272;-71
2021/09/29 08:23:41;;;;;;;7.00;3.37;;;;;;;-145.18;0.00;102943.50;5079868;28;20107;-71
2021/09/29 08:29:22;;;;;;;8.73;3.40;;;;;;;-145.18;0.00;102943.50;5036417;28;20581;-71
2021/09/29 08:32:11;;;;;;;6.57;3.47;;;;;;;-145.18;0.00;102943.50;5079073;28;20573;-71
2021/09/29 08:35:23;;;;;;;7.57;3.17;;;;;;;-145.18;0.00;102943.50;5072513;28;20036;-71
2021/09/29 08:37:44;;;;;;;6.88;3.30;;;;;;;-145.18;0.00;102943.50;5075066;28;20036;-71
2021/09/29 08:40:21;;;;;;;5.40;2.80;;;;;;;-145.18;0.00;102943.50;5080513;28;20088;-71
2021/09/29 08:45:58;;;;;;;7.00;2.90;;;;;;;-145.18;0.00;102943.50;4996376;28;20351;-71
2021/09/29 08:48:56;;;;;;;6.20;3.00;;;;;;;-145.18;0.00;102943.50;4997187;28;20154;-71
2021/09/29 08:51:30;;;;;;;6.60;3.08;;;;;;;-145.18;0.00;102943.50;4996916;28;20042;-71
2021/09/29 08:57:12;;;;;;;6.82;2.47;;;;;;;-145.18;0.00;102943.50;4985586;28;20037;-71
2021/09/29 09:16:31;;;;;;;7.10;2.40;;;;;;;-145.18;0.00;102943.50;4991198;28;20076;-70
2021/09/29 09:18:59;;;;;;;4.80;2.50;;;;;;;-145.18;0.00;102943.50;4995721;28;20037;-71
2021/09/29 09:21:25;;;;;;;5.07;2.60;;;;;;;-145.18;0.00;102943.50;5011112;28;20428;-71
2021/09/29 09:23:51;;;;;;;5.60;2.70;;;;;;;-145.18;0.00;102943.50;5078678;28;20032;-71
2021/09/29 09:26:22;;;;;;;5.67;2.30;;;;;;;-145.18;0.00;102943.50;5079297;28;20322;-71
2021/09/29 09:29:03;;;;;;;8.00;2.37;;;;;;;-145.18;0.00;102943.50;5067671;28;20115;-71
2021/09/29 09:31:29;;;;;;;5.20;2.40;;;;;;;-145.18;0.00;102943.50;5078880;28;20031;-71
2021/09/29 09:33:58;;;;;;;3.97;2.17;;;;;;;-145.18;0.00;102943.50;5076480;28;20032;-71
2021/09/29 09:36:41;;;;;;;6.67;2.47;;;;;;;-145.18;0.00;102943.50;5079007;28;20546;-71
2021/09/29 09:39:11;;;;;;;5.70;2.50;;;;;;;-145.18;0.00;102943.50;5074551;28;20499;-71
2021/09/29 09:41:37;;;;;;;7.87;2.23;;;;;;;-145.18;0.00;102943.50;5078718;28;20512;-71
2021/09/29 09:44:05;;;;;;;5.23;2.27;;;;;;;-145.18;0.00;102943.50;5075242;28;20027;-71
2021/09/29 09:46:32;;;;;;;6.43;2.60;;;;;;;-145.18;0.00;102943.50;5078250;28;20274;-71
2021/09/29 09:49:09;;;;;;;7.90;2.33;;;;;;;-145.18;0.00;102943.50;5075052;28;20103;-71
2021/09/29 09:51:50;;;;;;;7.50;2.60;;;;;;;-145.18;0.00;102943.50;5075578;28;20098;-71
2021/09/29 09:54:16;;;;;;;5.03;2.40;;;;;;;-145.18;0.00;102943.50;5075514;28;20507;-71
2021/09/29 09:56:46;;;;;;;4.90;2.40;;;;;;;-145.18;0.00;102943.50;5078466;28;20497;-71
2021/09/29 09:59:11;;;;;;;7.07;2.80;;;;;;;-145.18;0.00;102943.50;5067811;28;20062;-71
2021/09/29 10:01:40;;;;;;;10.30;3.30;;;;;;;-145.18;0.00;102943.50;5077880;28;20031;-71
2021/09/29 10:04:14;;;;;;;6.93;2.50;;;;;;;-145.18;0.00;102943.50;5070572;28;20199;-71
2021/09/29 10:06:40;;;;;;;6.17;2.60;;;;;;;-145.18;0.00;102943.50;5078752;28;20094;-71
2021/09/29 10:09:27;;;;;;;6.97;2.60;;;;;;;-145.18;0.00;102943.50;5077489;28;20036;-71
2021/09/29 10:15:01;;;;;;;6.73;2.70;;;;;;;-145.18;0.00;102943.50;5022128;28;20069;-71
2021/09/29 10:23:25;;;;;;;6.33;2.83;;;;;;;-145.18;0.00;102943.50;5076634;28;20050;-71
2021/09/29 10:28:43;;;;;;;9.35;3.58;;;;;;;-145.18;0.00;102943.50;5068739;28;20031;-71
2021/09/29 10:31:23;;;;;;;11.63;3.53;;;;;;;-145.18;0.00;102943.50;5082434;28;20032;-71
2021/09/29 10:34:06;;;;;;;7.27;3.50;;;;;;;-145.18;0.00;102943.50;5067510;28;20162;-71
2021/09/29 10:36:45;;;;;;;6.50;3.30;;;;;;;-145.18;0.00;102943.50;5069414;28;20477;-71
2021/09/29 10:42:18;;;;;;;7.57;2.80;;;;;;;-145.18;0.00;102943.50;5074879;28;20062;-71
2021/09/29 10:45:24;;;;;;;7.30;2.80;;;;;;;-145.18;0.00;102943.50;5072914;28;20617;-71
2021/09/29 10:48:16;;;;;;;10.38;2.60;;;;;;;-145.18;0.00;102943.50;5080278;28;20470;-70
2021/09/29 10:51:15;;;;;;;5.97;2.40;;;;;;;-145.18;0.00;102943.50;5081093;28;20040;-70
2021/09/29 11:28:37;;;;;;;5.23;1.67;;;;;;;-145.18;0.00;102943.50;4975449;28;20081;-71
2021/09/29 11:31:10;;;;;;;4.03;1.80;;;;;;;-145.18;0.00;102943.50;4961216;28;20297;-70
2021/09/29 11:36:41;;;;;;;7.63;2.37;;;;;;;-145.18;0.00;102943.50;4959107;28;20054;-70
2021/09/29 11:39:33;;;;;;;5.33;2.17;;;;;;;-145.18;0.00;102943.50;4967370;28;20049;-70
2021/09/29 12:09:53;;;;;;;5.20;2.20;;;;;;;-145.18;0.00;102943.50;5029161;28;20167;-70
2021/09/29 12:12:35;;;;;;;5.00;2.30;;;;;;;-145.18;0.00;102943.50;5039764;28;20215;-70
2021/09/29 12:15:04;;;;;;;6.90;2.33;;;;;;;-145.18;0.00;102943.50;5039270;28;20040;-70
2021/09/29 12:17:34;;;;;;;6.03;2.50;;;;;;;-145.18;0.00;102943.50;5047554;28;20029;-70
2021/09/29 12:20:10;;;;;;;9.13;2.80;;;;;;;-145.18;0.00;102943.50;5051729;28;20043;-70
2021/09/29 12:22:42;;;;;;;5.70;2.60;;;;;;;-145.18;0.00;102943.50;5037561;28;20275;-70
2021/09/29 12:25:13;;;;;;;4.50;2.38;;;;;;;-145.18;0.00;102943.50;5043740;28;20290;-70
2021/09/29 12:27:51;;;;;;;6.87;2.93;;;;;;;-145.18;0.00;102943.50;5073116;28;20101;-70
2021/09/29 12:30:37;;;;;;;4.73;2.40;;;;;;;-145.18;0.00;102943.50;5075099;28;20553;-70
2021/09/29 12:33:12;;;;;;;5.37;2.30;;;;;;;-145.18;0.00;102943.50;5075360;28;20489;-70
2021/09/29 12:35:45;;;;;;;4.50;2.53;;;;;;;-145.18;0.00;102943.50;5077553;28;20031;-70
2021/09/29 12:38:12;;;;;;;6.67;2.60;;;;;;;-145.18;0.00;102943.50;5074397;28;20122;-70
2021/09/29 12:40:40;;;;;;;5.57;2.63;;;;;;;-145.18;0.00;102943.50;5075050;28;20488;-70
2021/09/29 12:43:12;;;;;;;4.53;2.33;;;;;;;-145.18;0.00;102943.50;5074977;28;20032;-70
2021/09/29 12:45:41;;;;;;;4.30;2.60;;;;;;;-145.18;0.00;102943.50;5075092;28;20215;-70
2021/09/29 12:48:09;;;;;;;5.37;2.57;;;;;;;-145.18;0.00;102943.50;5074316;28;20039;-70
2021/09/29 12:50:59;;;;;;;3.57;2.00;;;;;;;-145.18;0.00;102943.50;5075013;28;20016;-70
2021/09/29 12:53:37;;;;;;;3.67;2.03;;;;;;;-145.18;0.00;102943.50;5072010;28;20041;-70
2021/09/29 12:56:11;;;;;;;4.30;1.70;;;;;;;-145.18;0.00;102943.50;5071728;28;20031;-70
2021/09/29 12:58:37;;;;;;;3.30;1.60;;;;;;;-145.18;0.00;102943.50;5071926;28;20416;-70
2021/09/29 13:01:03;;;;;;;3.83;1.53;;;;;;;-145.18;0.00;102943.50;5080325;28;20187;-70
2021/09/29 13:03:29;;;;;;;3.27;1.77;;;;;;;-145.18;0.00;102943.50;5073959;28;20106;-70
2021/09/29 13:05:57;;;;;;;6.00;1.87;;;;;;;-145.18;0.00;102943.50;5079911;28;20023;-70